Hauptseite
METAR-TAF:

METAR-TAF

Flughäfen :

Fliegerhorst Hinterstoisser

Zeltweg, Österreich

Breite: 47-12N, Länge: 014-45E, Höhe: 677 m

Beobachtung

Neuester Wetterbericht von vor 1 Stunde und 21 Minuten, um 23:50 UTC
Wind 5 kt aus West, variierte zwischen Südwest und Nordwest
Temperatur 4°C
Luftfeuchtigkeit 70%
Luftdruck 1019 hPa

METAR: LOXZ 072350Z 27005KT 220V320 20KM FEW060SC BKN075SC 04/M01 Q1019

Zeit: 03:11 (01:11 UTC)

Prognose

Neuester Wetterbericht von vor 7 Stunden und 56 Minuten, um 17:15 UTC
Gültige Prognose vom 07 um 18 UTC bis 08 um 03 UTC
Wind 10 kt aus West
Sichtweite 10 km oder mehr
Leicht bewölkt in der Höhe von 5000 ft
Aufgelockert bewölkt in der Höhe von 6000 ft
Übergehend zu
vom 07 um 18 UTC bis 07 um 12 UTC
Wind 3 kt aus unterschiedlichen Richtungen
Leicht bewölkt in der Höhe von 6000 ft

TAF: LOXZ 071715Z 0718/0803 28010KT 9999 FEW050 SCT060 BECMG 0718/07120 VRB03KT FEW060

Wetterbeobachtungen und Prognosen von mehr als 4000 Flughäfen (METAR und TAF Bericht).

Die verfügbaren Stationen werden durch gelbe und rote Markierungen auf der Karte dargestellt.

Führen Sie die Maus auf sie, um den Namen der Station zu sehen.

Darauf klicken, um die Beobachtung von Wetterbeobachtungen und Prognosen zu sehen.

Um die Karte zu ändern : klicken Sie auf den grünen Tasten mit einem schwarzen Kreuz Zum Vergrößern, auf den grünen Button mit einem Gedankenstrich zu verkleinern, oder auf die grünen Pfeile für benachbarte Karten.


METAR-TAF: